Time;durP1;ratioP1;P1;durP2;ratioP2;P2;SDS_P1;SDS_P2;PMS_P1;PMS_P2;Temp;Humidity;BMP_temperature;BMP_pressure;BME280_temperature;BME280_humidity;BME280_pressure;Samples;Min_cycle;Max_cycle;Signal;HPM_P1;HPM_P2
2022/04/21 00:01:02;;;;;;;6.18;5.78;;;;;;;-141.48;100.00;69781.59;5243994;28;20079;-59
2022/04/21 00:03:33;;;;;;;7.95;7.30;;;;;;;-141.48;100.00;69781.59;5243378;28;20033;-58
2022/04/21 00:06:03;;;;;;;7.75;6.65;;;;;;;-141.48;100.00;69781.59;5226747;28;20029;-63
2022/04/21 00:08:34;;;;;;;6.93;6.43;;;;;;;-141.48;100.00;69781.59;5227349;28;20025;-60
2022/04/21 00:11:04;;;;;;;7.35;6.85;;;;;;;-141.48;100.00;69781.59;5227138;28;20079;-59
2022/04/21 00:13:36;;;;;;;8.50;7.53;;;;;;;-141.48;100.00;69781.59;5226886;28;20032;-59
2022/04/21 00:16:07;;;;;;;7.63;6.82;;;;;;;-141.48;100.00;69781.59;5227054;28;20036;-58
2022/04/21 00:18:37;;;;;;;7.75;7.18;;;;;;;-141.48;100.00;69781.59;5226521;28;20029;-60
2022/04/21 00:21:08;;;;;;;8.57;5.88;;;;;;;-141.48;100.00;69781.59;5226722;28;20029;-59
2022/04/21 00:23:38;;;;;;;8.27;6.93;;;;;;;-141.48;100.00;69781.59;5227619;28;20028;-60
2022/04/21 00:26:09;;;;;;;6.78;6.30;;;;;;;-141.48;100.00;69781.59;5226743;28;20069;-59
2022/04/21 00:28:39;;;;;;;9.13;7.40;;;;;;;-141.48;100.00;69781.59;5226253;28;20116;-60
2022/04/21 00:31:10;;;;;;;6.43;6.03;;;;;;;-141.48;100.00;69781.59;5226473;28;20036;-60
2022/04/21 00:33:40;;;;;;;7.95;7.45;;;;;;;-141.48;100.00;69781.59;5226282;28;20029;-60
2022/04/21 00:36:10;;;;;;;9.02;6.63;;;;;;;-141.48;100.00;69781.59;5226422;28;20391;-59
2022/04/21 00:38:41;;;;;;;7.28;6.72;;;;;;;-141.48;100.00;69781.59;5226553;28;20024;-59
2022/04/21 00:41:12;;;;;;;7.85;7.13;;;;;;;-141.48;100.00;69781.59;5225923;28;20025;-58
2022/04/21 00:43:42;;;;;;;10.02;6.80;;;;;;;-141.48;100.00;69781.59;5225711;28;20476;-59
2022/04/21 00:46:21;;;;;;;6.55;6.07;;;;;;;-141.48;100.00;69781.59;5226317;28;20166;-65
2022/04/21 00:48:52;;;;;;;8.63;7.78;;;;;;;-141.48;100.00;69781.59;5226101;28;20459;-60
2022/04/21 00:51:24;;;;;;;6.97;6.57;;;;;;;-141.48;100.00;69781.59;5226371;28;20060;-58
2022/04/21 00:53:54;;;;;;;13.38;7.32;;;;;;;-141.48;100.00;69781.59;5225603;28;20492;-58
2022/04/21 00:56:25;;;;;;;7.30;6.78;;;;;;;-141.48;100.00;69781.59;5226145;28;20082;-60
2022/04/21 00:58:57;;;;;;;7.30;6.78;;;;;;;-141.48;100.00;69781.59;5227321;28;20032;-62
2022/04/21 01:04:19;;;;;;;7.47;6.88;;;;;;;-141.48;100.00;69781.59;5226770;28;20093;-60
2022/04/21 01:06:51;;;;;;;7.78;6.95;;;;;;;-141.48;100.00;69781.59;5225660;28;20017;-58
2022/04/21 01:09:22;;;;;;;6.45;6.03;;;;;;;-141.48;100.00;69781.59;5225866;28;20079;-59
2022/04/21 01:11:53;;;;;;;8.73;7.90;;;;;;;-141.48;100.00;69781.59;5225643;28;20388;-59
2022/04/21 01:14:24;;;;;;;7.43;6.93;;;;;;;-141.48;100.00;69781.59;5225515;28;20524;-57
2022/04/21 01:16:54;;;;;;;7.70;6.90;;;;;;;-141.48;100.00;69781.59;5225414;28;20044;-60
2022/04/21 01:19:25;;;;;;;6.63;6.22;;;;;;;-141.48;100.00;69781.59;5225552;28;20025;-60
2022/04/21 01:21:55;;;;;;;7.40;6.78;;;;;;;-141.48;100.00;69781.59;5225655;28;20273;-60
2022/04/21 01:24:29;;;;;;;8.30;7.50;;;;;;;-141.48;100.00;69781.59;5225056;28;20033;-59
2022/04/21 01:27:00;;;;;;;7.53;7.13;;;;;;;-141.48;100.00;69781.59;5225785;28;20123;-60
2022/04/21 01:29:32;;;;;;;6.93;6.60;;;;;;;-141.48;100.00;69781.59;5224577;28;20097;-60
2022/04/21 01:32:02;;;;;;;7.55;6.78;;;;;;;-141.48;100.00;69781.59;5225565;28;20055;-60
2022/04/21 01:34:33;;;;;;;7.93;7.30;;;;;;;-141.48;100.00;69781.59;5225077;28;20021;-59
2022/04/21 01:42:42;;;;;;;10.07;9.13;;;;;;;-141.48;100.00;69781.59;5226543;28;20055;-59
2022/04/21 01:45:12;;;;;;;8.63;7.97;;;;;;;-141.48;100.00;69781.59;5224997;28;20544;-60
2022/04/21 01:47:43;;;;;;;9.70;7.93;;;;;;;-141.48;100.00;69781.59;5226571;28;20021;-62
2022/04/21 01:50:13;;;;;;;8.05;7.38;;;;;;;-141.48;100.00;69781.59;5225074;28;20025;-60
2022/04/21 01:52:44;;;;;;;6.40;5.90;;;;;;;-141.48;100.00;69781.59;5225047;28;20021;-59
2022/04/21 01:55:14;;;;;;;7.75;7.18;;;;;;;-141.48;100.00;69781.59;5225969;28;20052;-59
2022/04/21 01:57:45;;;;;;;8.25;7.55;;;;;;;-141.48;100.00;69781.59;5226108;28;20488;-58
2022/04/21 02:00:16;;;;;;;9.15;8.50;;;;;;;-141.48;100.00;69781.59;5224577;28;20095;-61
2022/04/21 02:02:47;;;;;;;7.90;7.28;;;;;;;-141.48;100.00;69781.59;5224760;28;20116;-59
2022/04/21 02:05:18;;;;;;;9.75;8.30;;;;;;;-141.48;100.00;69781.59;5224507;28;20121;-59
2022/04/21 02:07:49;;;;;;;16.98;6.85;;;;;;;-141.48;100.00;69781.59;5225033;28;20035;-58
2022/04/21 02:10:24;;;;;;;7.65;7.13;;;;;;;-141.48;100.00;69781.59;5224636;28;20455;-57
2022/04/21 02:12:54;;;;;;;7.43;6.82;;;;;;;-141.48;100.00;69781.59;5224599;28;20369;-58
2022/04/21 02:15:25;;;;;;;7.95;7.45;;;;;;;-141.48;100.00;69781.59;5224885;28;20024;-60
2022/04/21 02:17:55;;;;;;;9.55;8.55;;;;;;;-141.48;100.00;69781.59;5224938;28;20036;-59
2022/04/21 02:20:26;;;;;;;7.97;7.45;;;;;;;-141.48;100.00;69781.59;5224608;28;20391;-62
2022/04/21 02:22:56;;;;;;;8.68;7.97;;;;;;;-141.48;100.00;69781.59;5224961;28;20025;-62
2022/04/21 02:25:27;;;;;;;8.45;7.82;;;;;;;-141.48;100.00;69781.59;5224468;28;20291;-60
2022/04/21 02:27:57;;;;;;;7.32;6.75;;;;;;;-141.48;100.00;69781.59;5224770;28;20036;-59
2022/04/21 02:30:28;;;;;;;15.50;8.73;;;;;;;-141.48;100.00;69781.59;5224453;28;20028;-60
2022/04/21 02:32:58;;;;;;;8.65;7.90;;;;;;;-141.48;100.00;69781.59;5224781;28;20040;-60
2022/04/21 02:35:29;;;;;;;8.23;7.63;;;;;;;-141.48;100.00;69781.59;5224125;28;20469;-60
2022/04/21 02:37:59;;;;;;;12.90;8.50;;;;;;;-141.48;100.00;69781.59;5224435;28;20105;-60
2022/04/21 02:40:30;;;;;;;8.98;7.75;;;;;;;-141.48;100.00;69781.59;5225376;28;20033;-60
2022/04/21 02:43:00;;;;;;;9.40;8.57;;;;;;;-141.48;100.00;69781.59;5228620;28;20029;-58
2022/04/21 02:45:31;;;;;;;8.07;7.20;;;;;;;-141.48;100.00;69781.59;5228336;28;20449;-60
2022/04/21 02:48:02;;;;;;;8.80;8.20;;;;;;;-141.48;100.00;69781.59;5228471;28;20020;-58
2022/04/21 02:50:32;;;;;;;9.00;8.30;;;;;;;-141.48;100.00;69781.59;5228385;28;20033;-58
2022/04/21 02:53:03;;;;;;;12.23;9.30;;;;;;;-141.48;100.00;69781.59;5228363;28;20495;-58
2022/04/21 02:58:30;;;;;;;8.30;7.80;;;;;;;-141.48;100.00;69781.59;5221321;28;20032;-59
2022/04/21 03:01:00;;;;;;;9.18;8.48;;;;;;;-141.48;100.00;69781.59;5228264;28;20033;-59
2022/04/21 03:03:31;;;;;;;8.90;8.30;;;;;;;-141.48;100.00;69781.59;5228330;28;20465;-59
2022/04/21 03:06:01;;;;;;;9.23;8.63;;;;;;;-141.48;100.00;69781.59;5229787;28;20503;-58
2022/04/21 03:08:32;;;;;;;9.18;8.38;;;;;;;-141.48;100.00;69781.59;5227881;28;20025;-58
2022/04/21 03:11:02;;;;;;;9.48;8.82;;;;;;;-141.48;100.00;69781.59;5227957;28;20116;-58
2022/04/21 03:13:32;;;;;;;9.35;8.52;;;;;;;-141.48;100.00;69781.59;5227683;28;20020;-60
2022/04/21 03:16:03;;;;;;;9.48;8.70;;;;;;;-141.48;100.00;69781.59;5227966;28;20559;-60
2022/04/21 03:18:34;;;;;;;9.35;8.35;;;;;;;-141.48;100.00;69781.59;5228056;28;20027;-60
2022/04/21 03:26:42;;;;;;;7.72;7.25;;;;;;;-141.48;100.00;69781.59;5229016;28;20040;-59
2022/04/21 03:29:13;;;;;;;7.25;6.68;;;;;;;-141.48;100.00;69781.59;5228773;28;20024;-58
2022/04/21 03:31:44;;;;;;;8.85;8.15;;;;;;;-141.48;100.00;69781.59;5227817;28;20503;-58
2022/04/21 03:34:17;;;;;;;10.48;9.73;;;;;;;-141.48;100.00;69781.59;5227303;28;20032;-58
2022/04/21 03:36:49;;;;;;;9.15;8.50;;;;;;;-141.48;100.00;69781.59;5227747;28;20283;-59
2022/04/21 03:39:21;;;;;;;14.15;9.57;;;;;;;-141.48;100.00;69781.59;5227701;28;20028;-58
2022/04/21 03:41:54;;;;;;;9.90;9.05;;;;;;;-141.48;100.00;69781.59;5227295;28;20035;-59
2022/04/21 03:44:25;;;;;;;11.85;8.88;;;;;;;-141.48;100.00;69781.59;5227273;28;20021;-58
2022/04/21 03:46:58;;;;;;;9.93;9.10;;;;;;;-141.48;100.00;69781.59;5227550;28;20029;-60
2022/04/21 03:49:30;;;;;;;12.65;9.60;;;;;;;-141.48;100.00;69781.59;5227548;28;20059;-60
2022/04/21 03:52:00;;;;;;;10.32;9.48;;;;;;;-141.48;100.00;69781.59;5226685;28;20056;-59
2022/04/21 03:54:31;;;;;;;13.90;9.50;;;;;;;-141.48;100.00;69781.59;5227006;28;20048;-59
2022/04/21 03:57:02;;;;;;;9.48;8.88;;;;;;;-141.48;100.00;69781.59;5227447;28;20048;-59
2022/04/21 03:59:33;;;;;;;10.45;9.43;;;;;;;-141.48;100.00;69781.59;5227082;28;20047;-58
2022/04/21 04:02:04;;;;;;;10.00;9.30;;;;;;;-141.48;100.00;69781.59;5227196;28;20032;-58
2022/04/21 04:04:36;;;;;;;11.50;10.38;;;;;;;-141.48;100.00;69781.59;5226558;28;20177;-60
2022/04/21 04:12:44;;;;;;;12.02;9.30;;;;;;;-141.48;100.00;69781.59;5228455;28;20036;-58
2022/04/21 04:15:15;;;;;;;9.68;8.95;;;;;;;-141.48;100.00;69781.59;5226482;28;20374;-64
2022/04/21 04:17:46;;;;;;;10.00;9.18;;;;;;;-141.48;100.00;69781.59;5226824;28;20431;-60
2022/04/21 04:20:16;;;;;;;9.27;8.57;;;;;;;-141.48;100.00;69781.59;5226920;28;20036;-60
2022/04/21 04:22:47;;;;;;;9.93;9.00;;;;;;;-141.48;100.00;69781.59;5227009;28;20067;-60
2022/04/21 04:25:17;;;;;;;9.50;9.00;;;;;;;-141.48;100.00;69781.59;5227403;28;20526;-59
2022/04/21 04:27:48;;;;;;;11.32;10.52;;;;;;;-141.48;100.00;69781.59;5226897;28;20025;-58
2022/04/21 04:30:18;;;;;;;10.27;9.68;;;;;;;-141.48;100.00;69781.59;5226521;28;20029;-59
2022/04/21 04:32:49;;;;;;;10.27;9.43;;;;;;;-141.48;100.00;69781.59;5228040;28;20143;-58
2022/04/21 04:35:19;;;;;;;11.60;10.80;;;;;;;-141.48;100.00;69781.59;5226405;28;20036;-59
2022/04/21 04:37:49;;;;;;;12.10;10.95;;;;;;;-141.48;100.00;69781.59;5226812;28;20025;-57
2022/04/21 04:40:20;;;;;;;10.57;9.88;;;;;;;-141.48;100.00;69781.59;5226604;28;20029;-58
2022/04/21 04:42:53;;;;;;;10.75;9.95;;;;;;;-141.48;100.00;69781.59;5226062;28;20024;-58
2022/04/21 04:48:13;;;;;;;11.07;10.35;;;;;;;-141.48;100.00;69781.59;5227749;28;20043;-59
2022/04/21 04:50:46;;;;;;;12.45;10.63;;;;;;;-141.48;100.00;69781.59;5226063;28;20028;-59
2022/04/21 04:53:16;;;;;;;11.57;10.57;;;;;;;-141.48;100.00;69781.59;5225903;28;20025;-59
2022/04/21 04:55:47;;;;;;;11.77;10.93;;;;;;;-141.48;100.00;69781.59;5229837;28;21251;-58
2022/04/21 04:58:17;;;;;;;10.43;9.52;;;;;;;-141.48;100.00;69781.59;5224528;28;20562;-59
2022/04/21 05:00:48;;;;;;;11.77;10.98;;;;;;;-141.48;100.00;69781.59;5226001;28;20410;-59
2022/04/21 05:03:19;;;;;;;8.93;8.23;;;;;;;-141.48;100.00;69781.59;5225134;28;20504;-57
2022/04/21 05:05:51;;;;;;;10.57;9.93;;;;;;;-141.48;100.00;69781.59;5224400;28;20017;-58
2022/04/21 05:08:22;;;;;;;10.45;9.77;;;;;;;-141.48;100.00;69781.59;5225642;28;20496;-58
2022/04/21 05:10:53;;;;;;;10.18;9.38;;;;;;;-141.48;100.00;69781.59;5225695;28;20059;-61
2022/04/21 05:13:23;;;;;;;10.85;10.02;;;;;;;-141.48;100.00;69781.59;5224502;28;20036;-58
2022/04/21 05:15:54;;;;;;;11.00;10.02;;;;;;;-141.48;100.00;69781.59;5225230;28;20021;-58
2022/04/21 05:18:25;;;;;;;10.60;9.70;;;;;;;-141.48;100.00;69781.59;5225371;28;20044;-60
2022/04/21 05:20:55;;;;;;;10.52;9.55;;;;;;;-141.48;100.00;69781.59;5226634;28;20066;-58
2022/04/21 05:23:32;;;;;;;16.08;9.95;;;;;;;-141.48;100.00;69781.59;5224648;28;20042;-58
2022/04/21 05:26:03;;;;;;;10.80;10.13;;;;;;;-141.48;100.00;69781.59;5224925;28;20025;-58
2022/04/21 05:28:33;;;;;;;10.48;9.60;;;;;;;-141.48;100.00;69781.59;5223187;28;20025;-62
2022/04/21 05:31:04;;;;;;;10.57;9.65;;;;;;;-141.48;100.00;69781.59;5224953;28;20024;-58
2022/04/21 05:33:37;;;;;;;10.77;9.85;;;;;;;-141.48;100.00;69781.59;5223600;28;20031;-58
2022/04/21 05:36:09;;;;;;;9.30;8.60;;;;;;;-141.48;100.00;69781.59;5225227;28;20021;-57
2022/04/21 05:38:39;;;;;;;10.18;9.18;;;;;;;-141.48;100.00;69781.59;5223716;28;20024;-58
2022/04/21 05:41:13;;;;;;;10.20;9.30;;;;;;;-141.48;100.00;69781.59;5224094;28;20029;-57
2022/04/21 05:43:45;;;;;;;10.85;9.93;;;;;;;-141.48;100.00;69781.59;5224520;28;20116;-58
2022/04/21 05:46:16;;;;;;;18.10;16.80;;;;;;;-141.48;100.00;69781.59;5225000;28;20462;-59
2022/04/21 05:48:47;;;;;;;10.05;9.35;;;;;;;-141.48;100.00;69781.59;5223086;28;20029;-58
2022/04/21 05:51:18;;;;;;;16.45;10.98;;;;;;;-141.48;100.00;69781.59;5225002;28;20032;-57
2022/04/21 05:53:50;;;;;;;14.85;10.38;;;;;;;-141.48;100.00;69781.59;5224482;28;20035;-60
2022/04/21 05:56:20;;;;;;;17.38;9.38;;;;;;;-141.48;100.00;69781.59;5245127;22;20023;-77
2022/04/21 05:58:51;;;;;;;13.82;9.20;;;;;;;-141.48;100.00;69781.59;5205243;28;20426;-78
2022/04/21 06:01:21;;;;;;;10.68;9.68;;;;;;;-141.48;100.00;69781.59;5207219;28;20391;-79
2022/04/21 06:03:55;;;;;;;10.77;9.85;;;;;;;-141.48;100.00;69781.59;5204000;28;20216;-79
2022/04/21 06:06:25;;;;;;;9.57;8.93;;;;;;;-141.48;100.00;69781.59;5185154;28;20499;-77
2022/04/21 06:08:56;;;;;;;10.73;9.05;;;;;;;-141.48;100.00;69781.59;5203928;28;20024;-79
2022/04/21 06:11:27;;;;;;;10.20;9.35;;;;;;;-141.48;100.00;69781.59;5204701;28;20021;-79
2022/04/21 06:13:58;;;;;;;10.25;9.48;;;;;;;-141.48;100.00;69781.59;5203671;28;20168;-78
2022/04/21 06:16:28;;;;;;;9.57;8.95;;;;;;;-141.48;100.00;69781.59;5187412;28;20112;-81
2022/04/21 06:18:58;;;;;;;10.95;10.20;;;;;;;-141.48;100.00;69781.59;5189700;28;20025;-80
2022/04/21 06:21:29;;;;;;;9.60;8.93;;;;;;;-141.48;100.00;69781.59;5208692;28;20474;-80
2022/04/21 06:23:59;;;;;;;9.15;8.65;;;;;;;-141.48;100.00;69781.59;5207663;28;20391;-80
2022/04/21 06:26:30;;;;;;;10.75;9.68;;;;;;;-141.48;100.00;69781.59;5190620;28;20049;-81
2022/04/21 06:29:02;;;;;;;9.40;8.73;;;;;;;-141.48;100.00;69781.59;5189872;28;20029;-81
2022/04/21 06:31:36;;;;;;;20.67;9.50;;;;;;;-141.48;100.00;69781.59;5209956;28;20026;-83
2022/04/21 06:34:07;;;;;;;9.73;9.15;;;;;;;-141.48;100.00;69781.59;5191894;28;20467;-83
2022/04/21 06:36:37;;;;;;;9.48;8.57;;;;;;;-141.48;100.00;69781.59;5210178;28;20048;-81
2022/04/21 06:39:07;;;;;;;10.52;9.73;;;;;;;-141.48;100.00;69781.59;5192575;28;20022;-83
2022/04/21 06:41:38;;;;;;;9.23;8.68;;;;;;;-141.48;100.00;69781.59;5211340;28;20025;-83
2022/04/21 06:49:47;;;;;;;10.60;9.68;;;;;;;-141.48;100.00;69781.59;5207415;28;20072;-80
2022/04/21 06:52:18;;;;;;;10.70;9.80;;;;;;;-141.48;100.00;69781.59;5190760;28;20029;-79
2022/04/21 06:54:48;;;;;;;10.15;8.02;;;;;;;-141.48;100.00;69781.59;5208970;28;20097;-81
2022/04/21 06:57:19;;;;;;;8.82;8.32;;;;;;;-141.48;100.00;69781.59;5190382;28;20133;-81
2022/04/21 06:59:50;;;;;;;10.25;8.20;;;;;;;-141.48;100.00;69781.59;5190799;28;20029;-82
2022/04/21 07:02:37;;;;;;;38.38;10.05;;;;;;;-141.48;100.00;69781.59;5208348;28;20029;-82
2022/04/21 07:05:10;;;;;;;8.63;7.93;;;;;;;-141.48;100.00;69781.59;5192853;28;20022;-81
2022/04/21 07:07:41;;;;;;;11.15;9.45;;;;;;;-141.48;100.00;69781.59;5208905;28;20060;-82
2022/04/21 07:10:11;;;;;;;9.00;8.10;;;;;;;-141.48;100.00;69781.59;5210640;28;20021;-79
2022/04/21 07:12:42;;;;;;;10.82;9.27;;;;;;;-141.48;100.00;69781.59;5196342;28;20030;-82
2022/04/21 07:15:14;;;;;;;10.82;8.50;;;;;;;-141.48;100.00;69781.59;5207763;28;20018;-82
2022/04/21 07:17:44;;;;;;;9.90;9.18;;;;;;;-141.48;100.00;69781.59;5208030;28;20029;-82
2022/04/21 07:20:15;;;;;;;9.18;8.55;;;;;;;-141.48;100.00;69781.59;5190126;28;20034;-82
2022/04/21 07:22:45;;;;;;;7.90;7.38;;;;;;;-141.48;100.00;69781.59;5190124;28;20017;-82
2022/04/21 07:25:15;;;;;;;7.63;6.90;;;;;;;-141.48;100.00;69781.59;5208079;28;20547;-82
2022/04/21 07:27:46;;;;;;;11.88;9.15;;;;;;;-141.48;100.00;69781.59;5193085;28;20056;-78
2022/04/21 07:30:17;;;;;;;14.70;9.20;;;;;;;-141.48;100.00;69781.59;5213687;28;20028;-80
2022/04/21 07:32:47;;;;;;;8.00;7.32;;;;;;;-141.48;100.00;69781.59;5213872;28;20025;-81
2022/04/21 07:35:18;;;;;;;8.10;7.47;;;;;;;-141.48;100.00;69781.59;5214198;28;20045;-81
2022/04/21 07:37:49;;;;;;;9.25;8.35;;;;;;;-141.48;100.00;69781.59;5214953;28;20033;-79
2022/04/21 07:40:20;;;;;;;9.82;8.90;;;;;;;-141.48;100.00;69781.59;5215895;28;20025;-81
2022/04/21 07:42:50;;;;;;;7.82;7.32;;;;;;;-141.48;100.00;69781.59;5215092;28;20036;-81
2022/04/21 07:45:21;;;;;;;7.57;6.97;;;;;;;-141.48;100.00;69781.59;5195455;28;20025;-81
2022/04/21 07:47:51;;;;;;;7.88;7.22;;;;;;;-141.48;100.00;69781.59;5213635;28;20056;-79
2022/04/21 07:50:24;;;;;;;8.63;6.20;;;;;;;-141.48;100.00;69781.59;5213857;28;20029;-81
2022/04/21 07:55:46;;;;;;;7.57;6.95;;;;;;;-141.48;100.00;69781.59;5214549;28;20111;-81
2022/04/21 07:58:16;;;;;;;7.35;6.75;;;;;;;-141.48;100.00;69781.59;5238594;23;20512;-58
2022/04/21 08:00:47;;;;;;;7.80;6.45;;;;;;;-141.48;100.00;69781.59;5225003;28;20017;-59
2022/04/21 08:03:19;;;;;;;6.82;6.22;;;;;;;-141.48;100.00;69781.59;5231341;28;20060;-58
2022/04/21 08:05:50;;;;;;;7.07;6.43;;;;;;;-141.48;100.00;69781.59;5231190;28;20032;-59
2022/04/21 08:08:20;;;;;;;7.88;7.22;;;;;;;-141.48;100.00;69781.59;5225018;22;20095;-59
2022/04/21 08:10:51;;;;;;;7.38;5.88;;;;;;;-141.48;100.00;69781.59;5206839;28;20092;-59
2022/04/21 08:13:21;;;;;;;5.68;5.00;;;;;;;-141.48;100.00;69781.59;5206663;28;20051;-57
2022/04/21 08:15:53;;;;;;;4.30;4.10;;;;;;;-141.48;100.00;69781.59;5206918;28;20049;-64
2022/04/21 08:18:24;;;;;;;4.65;3.88;;;;;;;-141.48;100.00;69781.59;5208190;28;20025;-63
2022/04/21 08:20:58;;;;;;;5.68;5.15;;;;;;;-141.48;100.00;69781.59;5218433;22;20040;-53
2022/04/21 08:23:28;;;;;;;5.88;4.82;;;;;;;-141.48;100.00;69781.59;5201857;28;20124;-53
2022/04/21 08:34:25;;;;;;;5.07;4.68;;;;;;;-141.48;100.00;69781.59;5227434;28;20118;-54
2022/04/21 08:36:56;;;;;;;7.10;6.38;;;;;;;-141.48;100.00;69781.59;5209657;28;20021;-55
2022/04/21 08:39:26;;;;;;;5.70;5.00;;;;;;;-141.48;100.00;69781.59;5209424;28;20421;-55
2022/04/21 08:42:10;;;;;;;8.52;5.22;;;;;;;-141.48;100.00;69781.59;5227430;28;20025;-56
2022/04/21 08:44:44;;;;;;;4.90;4.47;;;;;;;-141.48;100.00;69781.59;5208891;28;20025;-55
2022/04/21 08:47:18;;;;;;;6.72;5.80;;;;;;;-141.48;100.00;69781.59;5227448;28;20035;-57
2022/04/21 08:49:52;;;;;;;13.82;5.72;;;;;;;-141.48;100.00;69781.59;5209524;28;20412;-56
2022/04/21 08:52:23;;;;;;;5.53;5.18;;;;;;;-141.48;100.00;69781.59;5209346;28;20120;-54
2022/04/21 08:54:54;;;;;;;6.63;5.40;;;;;;;-141.48;100.00;69781.59;5208879;28;20124;-56
2022/04/21 08:57:27;;;;;;;7.05;4.60;;;;;;;-141.48;100.00;69781.59;5209143;28;20033;-55
2022/04/21 08:59:58;;;;;;;7.43;6.22;;;;;;;-141.48;100.00;69781.59;5209611;28;20052;-56
2022/04/21 09:02:39;;;;;;;4.30;4.00;;;;;;;-141.48;100.00;69781.59;5209197;28;20052;-54
2022/04/21 09:05:11;;;;;;;5.50;5.00;;;;;;;-141.48;100.00;69781.59;5208822;28;20087;-55
2022/04/21 09:07:49;;;;;;;5.20;4.90;;;;;;;-141.48;100.00;69781.59;5208916;28;20024;-53
2022/04/21 09:10:20;;;;;;;6.25;5.55;;;;;;;-141.48;100.00;69781.59;5209150;28;20025;-53
2022/04/21 09:12:55;;;;;;;6.18;5.68;;;;;;;-141.48;100.00;69781.59;5208867;28;20021;-53
2022/04/21 09:15:28;;;;;;;5.68;4.80;;;;;;;-141.48;100.00;69781.59;5208683;28;20025;-53
2022/04/21 09:18:10;;;;;;;5.30;4.80;;;;;;;-141.48;100.00;69781.59;5208866;28;20032;-54
2022/04/21 09:20:41;;;;;;;4.85;4.50;;;;;;;-141.48;100.00;69781.59;5208556;28;20115;-57
2022/04/21 09:23:11;;;;;;;5.65;5.00;;;;;;;-141.48;100.00;69781.59;5208563;28;20112;-55
2022/04/21 09:25:49;;;;;;;5.47;5.13;;;;;;;-141.48;100.00;69781.59;5208446;28;20041;-53
2022/04/21 09:28:25;;;;;;;4.85;4.45;;;;;;;-141.48;100.00;69781.59;5208581;28;20021;-54
2022/04/21 09:30:58;;;;;;;5.82;5.28;;;;;;;-141.48;100.00;69781.59;5208585;28;20021;-55
2022/04/21 09:33:34;;;;;;;7.18;5.72;;;;;;;-141.48;100.00;69781.59;5208307;28;20094;-54
2022/04/21 09:36:06;;;;;;;5.38;4.95;;;;;;;-141.48;100.00;69781.59;5208355;28;20024;-56
2022/04/21 09:38:37;;;;;;;4.57;4.28;;;;;;;-141.48;100.00;69781.59;5208311;28;20033;-54
2022/04/21 09:41:12;;;;;;;4.50;4.10;;;;;;;-141.48;100.00;69781.59;5208170;28;20055;-54
2022/04/21 09:43:43;;;;;;;4.65;4.25;;;;;;;-141.48;100.00;69781.59;5208017;28;20111;-55
2022/04/21 09:46:21;;;;;;;4.35;4.05;;;;;;;-141.48;100.00;69781.59;5208274;28;20124;-54
2022/04/21 09:48:55;;;;;;;5.65;4.70;;;;;;;-141.48;100.00;69781.59;5226257;28;20032;-53
2022/04/21 09:51:27;;;;;;;7.57;3.70;;;;;;;-141.48;100.00;69781.59;5207378;28;20025;-54
2022/04/21 09:54:02;;;;;;;9.55;5.15;;;;;;;-141.48;100.00;69781.59;5207819;28;20024;-55
2022/04/21 09:56:39;;;;;;;7.63;6.72;;;;;;;-141.48;100.00;69781.59;5225983;28;20025;-56
2022/04/21 09:59:12;;;;;;;6.70;4.03;;;;;;;-141.48;100.00;69781.59;5208227;28;20111;-53
2022/04/21 10:01:42;;;;;;;5.88;5.22;;;;;;;-141.48;100.00;69781.59;5207963;28;20582;-57
2022/04/21 10:04:13;;;;;;;6.57;5.35;;;;;;;-141.48;100.00;69781.59;5207732;28;20128;-59
2022/04/21 10:06:45;;;;;;;7.35;4.25;;;;;;;-141.48;100.00;69781.59;5207804;28;20497;-54
2022/04/21 10:09:18;;;;;;;4.05;3.85;;;;;;;-141.48;100.00;69781.59;5208017;28;20037;-58
2022/04/21 10:11:53;;;;;;;4.38;4.13;;;;;;;-141.48;100.00;69781.59;5207736;28;20032;-55
2022/04/21 10:14:24;;;;;;;3.50;3.25;;;;;;;-141.48;100.00;69781.59;5207304;28;20024;-56
2022/04/21 10:17:39;;;;;;;6.03;5.40;;;;;;;-141.48;100.00;69781.59;5208150;28;20433;-54
2022/04/21 10:20:10;;;;;;;5.05;4.35;;;;;;;-141.48;100.00;69781.59;5207770;28;20396;-54
2022/04/21 10:22:42;;;;;;;3.40;3.20;;;;;;;-141.48;100.00;69781.59;5208280;28;20025;-55
2022/04/21 10:25:13;;;;;;;3.97;3.65;;;;;;;-141.48;100.00;69781.59;5207618;28;20392;-55
2022/04/21 10:27:47;;;;;;;3.78;3.58;;;;;;;-141.48;100.00;69781.59;5207648;28;20090;-54
2022/04/21 10:30:25;;;;;;;4.35;4.13;;;;;;;-141.48;100.00;69781.59;5207578;28;20021;-54
2022/04/21 10:32:58;;;;;;;5.50;4.90;;;;;;;-141.48;100.00;69781.59;5207744;28;20484;-58
2022/04/21 10:35:29;;;;;;;4.53;4.13;;;;;;;-141.48;100.00;69781.59;5207268;28;20025;-57
2022/04/21 10:38:14;;;;;;;4.97;4.68;;;;;;;-141.48;100.00;69781.59;5207411;28;20032;-56
2022/04/21 10:40:56;;;;;;;6.93;6.32;;;;;;;-141.48;100.00;69781.59;5207603;28;20021;-56
2022/04/21 10:43:52;;;;;;;5.03;4.63;;;;;;;-141.48;100.00;69781.59;5207240;28;20473;-55
2022/04/21 10:46:29;;;;;;;5.60;5.10;;;;;;;-141.48;100.00;69781.59;5194274;28;20382;-55
2022/04/21 10:48:59;;;;;;;3.95;3.75;;;;;;;-141.48;100.00;69781.59;5207448;28;20025;-57
2022/04/21 10:57:12;;;;;;;12.43;4.63;;;;;;;-141.48;100.00;69781.59;5207376;28;20028;-56
2022/04/21 10:57:34;;;;;;;4.13;3.47;;;;;;;-141.48;100.00;69781.59;5225663;28;20044;-55
2022/04/21 11:00:08;;;;;;;4.63;4.18;;;;;;;-141.48;100.00;69781.59;5207346;28;20025;-55
2022/04/21 11:02:39;;;;;;;4.47;4.18;;;;;;;-141.48;100.00;69781.59;5210375;28;20443;-55
2022/04/21 11:05:33;;;;;;;5.32;4.82;;;;;;;-141.48;100.00;69781.59;5228851;28;20167;-57
2022/04/21 11:08:11;;;;;;;4.35;4.05;;;;;;;-141.48;100.00;69781.59;5211604;28;20041;-57
2022/04/21 11:10:43;;;;;;;3.42;3.20;;;;;;;-141.48;100.00;69781.59;5211458;28;20028;-56
2022/04/21 11:13:18;;;;;;;4.20;3.38;;;;;;;-141.48;100.00;69781.59;5211147;28;20036;-57
2022/04/21 11:15:53;;;;;;;6.28;4.57;;;;;;;-141.48;100.00;69781.59;5211119;28;20078;-55
2022/04/21 11:18:31;;;;;;;10.85;3.67;;;;;;;-141.48;100.00;69781.59;5211396;28;20152;-55
2022/04/21 11:21:21;;;;;;;3.88;3.58;;;;;;;-141.48;100.00;69781.59;5210998;28;20035;-57
2022/04/21 11:23:52;;;;;;;2.58;2.40;;;;;;;-141.48;100.00;69781.59;5210885;28;20025;-56
2022/04/21 11:26:28;;;;;;;4.95;4.45;;;;;;;-141.48;100.00;69781.59;5228793;28;20547;-56
2022/04/21 11:29:03;;;;;;;6.13;4.22;;;;;;;-141.48;100.00;69781.59;5211021;28;20094;-55
2022/04/21 11:31:34;;;;;;;3.88;3.58;;;;;;;-141.48;100.00;69781.59;5210856;28;20025;-56
2022/04/21 11:34:04;;;;;;;4.15;2.95;;;;;;;-141.48;100.00;69781.59;5210976;28;20035;-55
2022/04/21 11:36:38;;;;;;;4.35;3.15;;;;;;;-141.48;100.00;69781.59;5210903;28;20021;-57
2022/04/21 11:39:08;;;;;;;4.40;4.10;;;;;;;-141.48;100.00;69781.59;5210623;28;20086;-58
2022/04/21 11:41:48;;;;;;;5.97;3.92;;;;;;;-141.48;100.00;69781.59;5210763;28;20021;-58
2022/04/21 11:44:23;;;;;;;5.65;3.03;;;;;;;-141.48;100.00;69781.59;5210479;28;20099;-57
2022/04/21 11:46:54;;;;;;;4.45;4.13;;;;;;;-141.48;100.00;69781.59;5210961;28;20032;-57
2022/04/21 11:49:24;;;;;;;15.60;5.10;;;;;;;-141.48;100.00;69781.59;5210657;28;20085;-54
2022/04/21 11:51:55;;;;;;;3.67;3.47;;;;;;;-141.48;100.00;69781.59;5210871;28;20078;-54
2022/04/21 11:54:25;;;;;;;4.22;3.47;;;;;;;-141.48;100.00;69781.59;5210351;28;20496;-54
2022/04/21 11:56:56;;;;;;;4.75;4.40;;;;;;;-141.48;100.00;69781.59;5210548;28;20389;-55
2022/04/21 11:59:36;;;;;;;4.18;3.88;;;;;;;-141.48;100.00;69781.59;5210529;28;20028;-55
2022/04/21 12:07:48;;;;;;;4.32;4.03;;;;;;;-141.48;100.00;69781.59;5228472;28;20106;-55
2022/04/21 12:10:18;;;;;;;4.22;3.28;;;;;;;-141.48;100.00;69781.59;5210264;28;20025;-56
2022/04/21 12:12:49;;;;;;;3.75;3.55;;;;;;;-141.48;100.00;69781.59;5209634;28;20078;-57
2022/04/21 12:15:30;;;;;;;3.35;2.80;;;;;;;-141.48;100.00;69781.59;5209999;28;20036;-55
2022/04/21 12:18:02;;;;;;;4.18;3.88;;;;;;;-141.48;100.00;69781.59;5210288;28;20028;-57
2022/04/21 12:20:32;;;;;;;3.65;3.35;;;;;;;-141.48;100.00;69781.59;5209922;28;20029;-57